map of ISB home
Great Circle Mapper logo
ISB - Airport
Location
City:  Islamabad, Pakistan
Name:Benazir Bhutto International Airport
Old (Alt.):Chaklala
ICAO / IATA:OPRN / ISB

Details
Type:Airport (Aerodrome, Airfield)
Use:Public/Civil, Military, International (customs port of entry)
Latitude:3337'00"N (33.616653)
Longitude:7305'57"E (73.099233)
Datum:WGS 1984
Elevation:1668 ft (508 m)
Variation:2.46E (WMM2015 magnetic declination)
0.06 annual change
Runways:1
Longest:10785 × 150 ft (3287 × 45.5 m), paved

Time
Time Zone:UTC+5
Local Time:

Weather
METAR:OPRN 270430Z 31004KT 4000 HZ FEW100
TAF:OPRN 270330Z 2706/2812 27010KT 6000 FEW040 SCT100 SCT200
BECMG 2800/2806 27015KT 4000 HZ SCT040 BKN100
TEMPO 2809/2812 24015G25KT 6000 FEW035TCU SCT040 BKN100

Related Locations
Nearby:
Farthest:IPC: 11962 mi / 19251 km
Easter Island (Isla de Pascua, Rapa Nui) [Mataveri Intl], VS, CL

Find:

   beyond  
but within

Other Information
Maps:
NOTAMs:
Links:
Sources:

  
flag of Pakistan   

Sectional Chart

Flight Planning
at skyvector.com

Satellite Image

Google Maps Satellite View

 

Copyright © 2004-2015 Karl L. Swartz. All rights reserved.
The Great Circle Mapper name and logo are trademarks of the Great Circle Mapper.
All other trademarks mentioned herein belong to their respective owners.
Please see credits for attibutions and further copyright information.

  Follow gcmap on Facebook Follow gcmap on Twitter Follow gcmap on Google+

hCard Microformat

Geo Microformat